South Yankton, Nebraska
Current Conditions -  °F | °C
As of 8:35 AM on Sunday 23 Nov 2014 (Local Time) from KYKN Reporting Station
Broken Clouds Broken Clouds  
Wind Chill: 30°   Ceiling: 4200
Heat Index: 39°   Visibility: 10mi
Dew Point: 36°   Wind: 17mph
Humidity: 87%   Direction: 310°NW
Pressure: 29.55"   Gusts: NA
Location:  42.8189°N, 97.344°W
Report Text: KYKN 231435Z AUTO 31015KT 10SM SCT029 BKN042 04/02 A2955 RMK AO1 P0002
Loading
Personal Weather Stations






























Interactive Weather Map New forecast layout! Learn more

10-Day Weather Forecast

Advertisements
Track Severe Weather on mobile